createdAt,value
2017-08-21T00:00:43.726Z,72
2017-08-21T00:01:42.915Z,71.8
2017-08-21T00:02:41.984Z,71.9
2017-08-21T00:03:41.561Z,71.9
2017-08-21T00:04:40.751Z,71.9
2017-08-21T00:05:39.848Z,71.8
2017-08-21T00:06:39.052Z,71.9
2017-08-21T00:07:38.242Z,71.9
2017-08-21T00:09:36.353Z,72.1
2017-08-21T00:10:36.436Z,71.8
2017-08-21T00:12:34.514Z,72.1
2017-08-21T00:13:33.978Z,72
2017-08-21T00:15:32.438Z,71.8
2017-08-21T00:16:31.390Z,72
2017-08-21T00:17:31.084Z,72
2017-08-21T00:18:30.163Z,72.1
2017-08-21T00:19:29.233Z,72.1
2017-08-21T00:20:28.816Z,72.1
2017-08-21T00:21:27.879Z,72.1
2017-08-21T00:23:26.465Z,72.3
2017-08-21T00:24:26.039Z,72.4
2017-08-21T00:27:23.516Z,72.5
2017-08-21T00:28:22.880Z,72.4
2017-08-21T00:29:22.069Z,72.4
2017-08-21T00:30:21.152Z,72.3
2017-08-21T00:31:20.855Z,72.2
2017-08-21T00:32:20.043Z,72.3
2017-08-21T00:33:19.237Z,72.3
2017-08-21T00:34:18.438Z,72.3
2017-08-21T00:37:15.901Z,72.3
2017-08-21T00:38:15.598Z,72.3
2017-08-21T00:40:13.666Z,72.4
2017-08-21T00:42:12.239Z,72.4
2017-08-21T00:43:11.436Z,72.3
2017-08-21T00:44:11.711Z,72.3
2017-08-21T00:45:10.274Z,72.3
2017-08-21T00:46:09.472Z,72.3
2017-08-21T00:47:08.671Z,72.3
2017-08-21T00:48:07.753Z,72.2
2017-08-21T00:49:07.319Z,72.4
2017-08-21T00:51:05.784Z,72.6
2017-08-21T00:52:04.850Z,72.6
2017-08-21T00:53:03.933Z,72.8
2017-08-21T00:54:03.396Z,72.8
2017-08-21T00:55:02.855Z,72.8
2017-08-21T00:56:01.817Z,72.9
2017-08-21T00:57:01.514Z,72.9
2017-08-21T00:57:32.042Z,72.9
2017-08-21T00:58:02.547Z,72.9
2017-08-21T00:58:59.746Z,73.1
2017-08-21T00:59:58.936Z,73
2017-08-21T01:01:57.520Z,73.2
2017-08-21T01:02:56.633Z,73
2017-08-21T01:04:55.096Z,73
2017-08-21T01:06:53.550Z,73
2017-08-21T01:09:51.517Z,73.2
2017-08-21T01:11:49.980Z,73.2
2017-08-21T01:12:49.446Z,73.3
2017-08-21T01:14:47.908Z,73.5
2017-08-21T01:15:47.095Z,73.5
2017-08-21T01:16:46.187Z,73.6
2017-08-21T01:17:45.379Z,73.6
2017-08-21T01:18:45.089Z,73.7
2017-08-21T01:19:44.282Z,73.8
2017-08-21T01:20:43.409Z,74
2017-08-21T01:21:42.354Z,74.1
2017-08-21T01:22:42.046Z,73.9
2017-08-21T01:23:41.242Z,74
2017-08-21T01:24:40.468Z,74.1
2017-08-21T01:25:10.854Z,74.1
2017-08-21T01:25:41.232Z,74.1
2017-08-21T01:26:11.743Z,74.1
2017-08-21T01:27:38.011Z,74.3
2017-08-21T01:28:08.508Z,74.3
2017-08-21T01:29:36.274Z,74.3
2017-08-21T01:30:35.842Z,74.3
2017-08-21T01:32:34.301Z,74.3
2017-08-21T01:34:32.657Z,74.5
2017-08-21T01:35:32.359Z,74.6
2017-08-21T01:36:31.188Z,74.7
2017-08-21T01:43:26.141Z,75
2017-08-21T01:44:25.333Z,75.2
2017-08-21T01:46:23.926Z,75.3
2017-08-21T01:47:23.124Z,75.5
2017-08-21T01:48:22.338Z,75.7
2017-08-21T01:49:21.401Z,75.6
2017-08-21T01:53:18.773Z,75.7
2017-08-21T01:54:17.970Z,75.6
2017-08-21T01:55:17.162Z,75.8
2017-08-21T01:56:16.249Z,75.9
2017-08-21T01:57:15.812Z,75.9
2017-08-21T01:58:14.989Z,75.8
2017-08-21T01:59:14.059Z,76
2017-08-21T02:00:13.257Z,76.1
2017-08-21T02:02:11.836Z,76.2
2017-08-21T02:03:11.027Z,76.4
2017-08-21T02:04:10.106Z,76.5
2017-08-21T02:05:09.447Z,76.4
2017-08-21T02:07:08.295Z,76.7
2017-08-21T02:08:07.373Z,76.7
2017-08-21T02:09:06.426Z,76.7
2017-08-21T02:10:05.497Z,76.8
2017-08-21T02:11:05.069Z,76.9
2017-08-21T02:14:03.035Z,77.2
2017-08-21T02:17:00.260Z,77.4
2017-08-21T02:17:59.965Z,77.6
2017-08-21T02:19:58.438Z,77.6
2017-08-21T02:20:57.643Z,77.8
2017-08-21T02:21:56.888Z,77.8
2017-08-21T02:22:55.957Z,77.6
2017-08-21T02:23:55.152Z,77.6
2017-08-21T02:24:54.215Z,77.7
2017-08-21T02:26:52.813Z,77.7
2017-08-21T02:27:52.284Z,77.8
2017-08-21T02:28:51.483Z,77.8
2017-08-21T02:29:50.542Z,77.9
2017-08-21T02:30:49.737Z,78
2017-08-21T02:31:49.355Z,77.9
2017-08-21T02:33:47.342Z,78.1
2017-08-21T02:34:46.919Z,78.2
2017-08-21T02:35:45.878Z,78.2
2017-08-21T02:36:45.474Z,78.2
2017-08-21T02:37:44.570Z,78.4
2017-08-21T02:38:43.652Z,78.5
2017-08-21T02:39:43.120Z,78.7
2017-08-21T02:41:41.482Z,78.7
2017-08-21T02:42:40.570Z,78.7
2017-08-21T02:43:39.770Z,78.7
2017-08-21T02:44:39.245Z,78.7
2017-08-21T02:45:38.317Z,79
2017-08-21T02:46:37.501Z,79.2
2017-08-21T02:47:37.087Z,79.2
2017-08-21T02:49:35.236Z,79
2017-08-21T02:50:34.709Z,79
2017-08-21T02:51:33.556Z,79.1
2017-08-21T02:52:33.266Z,79
2017-08-21T02:53:32.461Z,79.1
2017-08-21T02:54:31.660Z,79.1
2017-08-21T02:56:30.004Z,79.3
2017-08-21T02:57:29.206Z,79.3
2017-08-21T02:58:28.386Z,79.3
2017-08-21T03:00:26.830Z,79.3
2017-08-21T03:03:24.677Z,79.3
2017-08-21T03:05:23.249Z,79.3
2017-08-21T03:06:22.330Z,79.3
2017-08-21T03:08:20.917Z,79.3
2017-08-21T03:09:20.101Z,79.2
2017-08-21T03:10:19.293Z,79.2
2017-08-21T03:11:18.484Z,79.2
2017-08-21T03:12:17.685Z,79.3
2017-08-21T03:13:16.633Z,79.4
2017-08-21T03:14:16.198Z,79.3
2017-08-21T03:17:14.153Z,79.5
2017-08-21T03:18:13.104Z,79.6
2017-08-21T03:20:11.680Z,79.7
2017-08-21T03:21:10.747Z,79.6
2017-08-21T03:22:09.930Z,79.6
2017-08-21T03:23:09.013Z,79.7
2017-08-21T03:26:06.977Z,79.7
2017-08-21T03:27:05.942Z,79.8
2017-08-21T03:28:05.416Z,79.8
2017-08-21T03:29:04.609Z,79.8
2017-08-21T03:30:03.696Z,80
2017-08-21T03:31:03.287Z,80
2017-08-21T03:32:02.503Z,80.1
2017-08-21T03:34:00.966Z,80.1
2017-08-21T03:35:00.311Z,80.2
2017-08-21T03:35:59.508Z,80.2
2017-08-21T03:37:57.584Z,80.2
2017-08-21T03:38:56.779Z,80.3
2017-08-21T03:40:55.237Z,80.2
2017-08-21T03:42:53.726Z,80.1
2017-08-21T03:43:52.927Z,80.2
2017-08-21T03:44:52.123Z,80.1
2017-08-21T03:46:50.713Z,80.3
2017-08-21T03:47:49.673Z,80.3
2017-08-21T03:50:47.528Z,80.3
2017-08-21T03:51:47.105Z,80.4
2017-08-21T03:53:45.083Z,80.5
2017-08-21T03:55:43.543Z,80.5
2017-08-21T03:56:42.997Z,80.5
2017-08-21T03:57:42.180Z,80.6
2017-08-21T03:59:40.769Z,80.5
2017-08-21T04:00:39.715Z,80.6
2017-08-21T04:02:38.285Z,80.7
2017-08-21T04:04:36.751Z,80.7
2017-08-21T04:05:35.823Z,80.7
2017-08-21T04:07:34.275Z,80.7
2017-08-21T04:09:32.762Z,81
2017-08-21T04:10:32.209Z,81
2017-08-21T04:11:31.396Z,81.1
2017-08-21T04:14:29.245Z,81.1
2017-08-21T04:15:28.328Z,81.1
2017-08-21T04:16:27.531Z,81
2017-08-21T04:17:26.724Z,81.1
2017-08-21T04:18:25.806Z,81.1
2017-08-21T04:19:25.262Z,81.1
2017-08-21T04:21:23.374Z,81
2017-08-21T04:22:22.562Z,80.8
2017-08-21T04:23:22.258Z,80.8
2017-08-21T04:26:19.512Z,80.8
2017-08-21T04:27:19.084Z,80.8
2017-08-21T04:31:15.928Z,80.3
2017-08-21T04:32:14.892Z,80.2
2017-08-21T04:34:13.475Z,79.8
2017-08-21T04:35:12.677Z,79.7
2017-08-21T04:36:11.858Z,79.7
2017-08-21T04:37:10.921Z,79.7
2017-08-21T04:38:10.116Z,79.4
2017-08-21T04:39:09.320Z,79.4
2017-08-21T04:40:08.898Z,79.5
2017-08-21T04:41:08.121Z,79.5
2017-08-21T04:42:07.305Z,79.2
2017-08-21T04:43:06.507Z,79.2
2017-08-21T04:44:05.578Z,79
2017-08-21T04:45:04.761Z,78.7
2017-08-21T04:46:03.955Z,78.7
2017-08-21T04:47:03.032Z,78.7
2017-08-21T04:49:01.488Z,78.4
2017-08-21T04:50:00.967Z,78.2
2017-08-21T04:51:00.037Z,77.8
2017-08-21T04:51:59.219Z,77.5
2017-08-21T04:52:58.400Z,77.3
2017-08-21T04:53:57.587Z,76.7
2017-08-21T04:54:56.779Z,76.5
2017-08-21T04:55:56.355Z,76.2
2017-08-21T04:56:55.545Z,75.9
2017-08-21T04:57:54.497Z,75.6
2017-08-21T04:58:54.060Z,75
2017-08-21T04:59:53.009Z,75
2017-08-21T05:00:52.195Z,75
2017-08-21T05:01:51.392Z,74.7
2017-08-21T05:03:49.876Z,74.3
2017-08-21T05:04:49.059Z,73.9
2017-08-21T05:05:48.264Z,73.9
2017-08-21T05:06:47.452Z,73.9
2017-08-21T05:07:46.518Z,73.4
2017-08-21T05:09:44.969Z,72.3
2017-08-21T05:10:44.309Z,72.6
2017-08-21T05:11:43.383Z,72.6
2017-08-21T05:12:42.851Z,72.2
2017-08-21T05:13:41.914Z,72.7
2017-08-21T05:14:41.073Z,72.4
2017-08-21T05:15:40.777Z,72.4
2017-08-21T05:16:39.837Z,71.9
2017-08-21T05:17:39.026Z,71.9
2017-08-21T05:18:38.224Z,71.4
2017-08-21T05:19:37.178Z,71.6
2017-08-21T05:20:36.755Z,71.5
2017-08-21T05:21:35.827Z,71.8
2017-08-21T05:22:35.303Z,71.6
2017-08-21T05:23:34.275Z,71.6
2017-08-21T05:24:33.457Z,71.6
2017-08-21T05:25:32.529Z,71.4
2017-08-21T05:26:31.510Z,71.3
2017-08-21T05:27:31.086Z,71.4
2017-08-21T05:28:30.494Z,70.7
2017-08-21T05:30:29.016Z,70.2
2017-08-21T05:31:28.092Z,70.2
2017-08-21T05:32:27.291Z,69.8
2017-08-21T05:33:26.490Z,69.8
2017-08-21T05:34:25.829Z,69.8
2017-08-21T05:36:24.399Z,68.6
2017-08-21T05:37:23.585Z,68.4
2017-08-21T05:38:22.650Z,67.8
2017-08-21T05:39:21.833Z,67.6
2017-08-21T05:40:20.899Z,66.7
2017-08-21T05:41:20.098Z,66.7
2017-08-21T05:42:19.302Z,66.8
2017-08-21T05:43:18.482Z,67
2017-08-21T05:44:18.170Z,66.1
2017-08-21T05:45:17.363Z,65.6
2017-08-21T05:46:16.434Z,65.9
2017-08-21T05:47:15.618Z,65.6
2017-08-21T05:48:14.820Z,65.4
2017-08-21T05:49:13.888Z,64.1
2017-08-21T05:51:12.336Z,65.4
2017-08-21T05:52:11.789Z,65
2017-08-21T05:53:10.988Z,64.5
2017-08-21T05:54:10.061Z,64.1
2017-08-21T05:55:09.264Z,63.3
2017-08-21T05:56:08.340Z,63.7
2017-08-21T05:57:08.045Z,63.5
2017-08-21T05:58:07.249Z,63.5
2017-08-21T05:59:06.209Z,63.5
2017-08-21T06:00:05.391Z,63.3
2017-08-21T06:01:04.581Z,63.2
2017-08-21T06:02:04.187Z,62.4
2017-08-21T06:03:03.376Z,62.1
2017-08-21T06:04:02.562Z,62.4
2017-08-21T06:05:01.654Z,61.6
2017-08-21T06:06:00.744Z,61.4
2017-08-21T06:06:59.933Z,61.2
2017-08-21T06:08:58.520Z,60.3
2017-08-21T06:09:57.477Z,60.6
2017-08-21T06:10:57.167Z,60.3
2017-08-21T06:11:56.241Z,60.1
2017-08-21T06:12:55.319Z,59.9
2017-08-21T06:13:54.392Z,59.2
2017-08-21T06:14:53.967Z,59.9
2017-08-21T06:15:52.913Z,59.9
2017-08-21T06:16:52.609Z,58.9
2017-08-21T06:17:51.805Z,59.4
2017-08-21T06:18:50.994Z,59.1
2017-08-21T06:19:50.062Z,58.9
2017-08-21T06:20:49.134Z,59.1
2017-08-21T06:21:48.602Z,58.6
2017-08-21T06:22:47.558Z,58.1
2017-08-21T06:23:47.275Z,57.9
2017-08-21T06:24:46.346Z,58.2
2017-08-21T06:25:45.428Z,57.5
2017-08-21T06:27:43.895Z,56.8
2017-08-21T06:28:43.475Z,56.2
2017-08-21T06:29:42.662Z,57.2
2017-08-21T06:30:41.875Z,57.2
2017-08-21T06:31:40.715Z,56.6
2017-08-21T06:32:40.405Z,56.6
2017-08-21T06:33:39.602Z,56.6
2017-08-21T06:34:38.791Z,56.2
2017-08-21T06:35:37.978Z,56.1
2017-08-21T06:36:37.169Z,56.2
2017-08-21T06:37:36.368Z,56.4
2017-08-21T06:39:34.834Z,56
2017-08-21T06:40:33.908Z,55.4
2017-08-21T06:41:33.101Z,55.1
2017-08-21T06:44:31.066Z,54.4
2017-08-21T06:45:30.247Z,54.7
2017-08-21T06:46:29.071Z,55.2
2017-08-21T06:47:28.534Z,54.3
2017-08-21T06:47:58.796Z,54.3
2017-08-21T06:48:29.684Z,53.9
2017-08-21T06:50:26.745Z,54.8
2017-08-21T06:51:25.935Z,54.7
2017-08-21T06:53:24.530Z,54.2
2017-08-21T06:55:22.619Z,53.6
2017-08-21T06:56:21.818Z,53.9
2017-08-21T06:57:21.278Z,54.3
2017-08-21T06:58:20.476Z,53
2017-08-21T06:58:50.978Z,53
2017-08-21T06:59:21.135Z,53
2017-08-21T06:59:52.026Z,53
2017-08-21T07:00:22.523Z,52.6
2017-08-21T07:00:52.900Z,52.6
2017-08-21T07:01:23.400Z,52.8
2017-08-21T07:01:53.919Z,52.8
2017-08-21T07:03:16.765Z,52.3
2017-08-21T07:04:15.849Z,51.8
2017-08-21T07:05:15.422Z,51.9
2017-08-21T07:06:14.385Z,51.8
2017-08-21T07:07:13.838Z,51.8
2017-08-21T07:08:12.920Z,52.2
2017-08-21T07:09:12.008Z,52.6
2017-08-21T07:10:11.709Z,52.5
2017-08-21T07:11:10.917Z,52.8
2017-08-21T07:12:09.756Z,52.1
2017-08-21T07:13:09.447Z,52.5
2017-08-21T07:14:08.519Z,52
2017-08-21T07:15:07.726Z,52
2017-08-21T07:16:06.919Z,52
2017-08-21T07:17:06.495Z,51.6
2017-08-21T07:19:05.071Z,51.7
2017-08-21T07:21:03.534Z,50.8
2017-08-21T07:22:02.623Z,51
2017-08-21T07:24:01.214Z,50.7
2017-08-21T07:25:00.553Z,50.5
2017-08-21T07:25:59.747Z,50.4
2017-08-21T07:26:58.943Z,50.4
2017-08-21T07:27:58.142Z,52.2
2017-08-21T07:29:56.718Z,52.2
2017-08-21T07:30:56.299Z,52.8
2017-08-21T07:31:55.503Z,53.4
2017-08-21T07:32:54.700Z,53.4
2017-08-21T07:33:53.907Z,53.2
2017-08-21T07:34:53.098Z,53.6
2017-08-21T07:36:51.567Z,52.6
2017-08-21T07:37:50.687Z,52.9
2017-08-21T07:38:50.376Z,52.1
2017-08-21T07:39:49.579Z,51.7
2017-08-21T07:40:48.780Z,51.7
2017-08-21T07:41:19.287Z,51.7
2017-08-21T07:43:46.307Z,51.1
2017-08-21T07:45:45.155Z,50.1
2017-08-21T07:46:44.225Z,50.1
2017-08-21T07:47:43.791Z,49.4
2017-08-21T07:48:43.002Z,49.3
2017-08-21T07:49:41.962Z,50.2
2017-08-21T07:52:39.807Z,49.6
2017-08-21T07:53:39.005Z,49.6
2017-08-21T07:54:38.704Z,49
2017-08-21T07:57:36.164Z,48.2
2017-08-21T07:58:35.623Z,48.2
2017-08-21T07:59:34.814Z,48
2017-08-21T08:00:34.006Z,48.1
2017-08-21T08:01:33.461Z,48
2017-08-21T08:02:32.528Z,48.4
2017-08-21T08:03:31.732Z,49
2017-08-21T08:04:31.434Z,49.3
2017-08-21T08:05:30.496Z,49.4
2017-08-21T08:06:29.703Z,50
2017-08-21T08:07:28.895Z,49.1
2017-08-21T08:08:28.586Z,48.6
2017-08-21T08:10:26.651Z,50.4
2017-08-21T08:11:26.121Z,50
2017-08-21T08:13:24.582Z,50.9
2017-08-21T08:14:23.789Z,51
2017-08-21T08:15:23.375Z,51
2017-08-21T08:16:22.581Z,51.6
2017-08-21T08:18:21.166Z,51.8
2017-08-21T08:19:20.261Z,52.3
2017-08-21T08:21:18.724Z,51.8
2017-08-21T08:22:18.303Z,52.5
2017-08-21T08:23:17.384Z,52
2017-08-21T08:25:16.242Z,51.5
2017-08-21T08:26:15.311Z,51.5
2017-08-21T08:27:14.764Z,50.5
2017-08-21T08:28:13.849Z,50.6
2017-08-21T08:29:13.042Z,50.9
2017-08-21T08:30:12.765Z,50.3
2017-08-21T08:32:11.111Z,50.9
2017-08-21T08:34:09.555Z,52.2
2017-08-21T08:35:08.786Z,52
2017-08-21T08:36:07.860Z,52.5
2017-08-21T08:37:07.437Z,51.2
2017-08-21T08:38:06.511Z,51.3
2017-08-21T08:39:05.868Z,50.9
2017-08-21T08:40:05.573Z,49.5
2017-08-21T08:41:04.544Z,49.6
2017-08-21T08:42:03.625Z,50.4
2017-08-21T08:43:03.082Z,50.5
2017-08-21T08:44:02.054Z,50.7
2017-08-21T08:45:01.521Z,50.9
2017-08-21T08:46:01.110Z,51
2017-08-21T08:47:59.453Z,50.4
2017-08-21T08:49:57.911Z,50.1
2017-08-21T08:50:57.600Z,48.6
2017-08-21T08:52:56.067Z,49.4
2017-08-21T08:53:55.315Z,49.4
2017-08-21T08:54:54.510Z,49.7
2017-08-21T08:55:54.101Z,49.2
2017-08-21T08:56:52.958Z,49.5
2017-08-21T08:57:52.551Z,48.8
2017-08-21T08:58:51.888Z,49.8
2017-08-21T08:59:51.076Z,49.1
2017-08-21T09:00:50.277Z,49.2
2017-08-21T09:01:49.988Z,48.7
2017-08-21T09:03:48.463Z,49
2017-08-21T09:04:47.429Z,48.9
2017-08-21T09:06:46.269Z,48.9
2017-08-21T09:07:45.229Z,48.9
2017-08-21T09:08:44.573Z,49.6
2017-08-21T09:09:44.271Z,49
2017-08-21T09:10:43.473Z,49.4
2017-08-21T09:11:42.428Z,50.1
2017-08-21T09:12:42.125Z,49.4
2017-08-21T09:13:41.198Z,49.9
2017-08-21T09:15:40.050Z,49.6
2017-08-21T09:17:38.624Z,50.2
2017-08-21T09:18:09.137Z,50.2
2017-08-21T09:18:39.643Z,49.8
2017-08-21T09:19:10.036Z,49.8
2017-08-21T09:19:40.534Z,49.5
2017-08-21T09:20:10.804Z,49.5
2017-08-21T09:23:34.349Z,49.4
2017-08-21T09:24:33.536Z,49.4
2017-08-21T09:25:32.505Z,49.8
2017-08-21T09:26:32.209Z,50.1
2017-08-21T09:28:30.805Z,49.6
2017-08-21T09:31:28.663Z,50.4
2017-08-21T09:33:27.513Z,51.4
2017-08-21T09:34:26.609Z,51.3
2017-08-21T09:37:24.470Z,51.2
2017-08-21T09:38:23.543Z,51.1
2017-08-21T09:39:23.234Z,51.5
2017-08-21T09:40:22.417Z,51.4
2017-08-21T09:41:21.869Z,51.4
2017-08-21T09:42:21.069Z,51.4
2017-08-21T09:43:20.404Z,51.4
2017-08-21T09:44:19.365Z,52.3
2017-08-21T09:45:18.950Z,52.1
2017-08-21T09:46:17.911Z,52.5
2017-08-21T09:47:17.380Z,52.1
2017-08-21T09:48:17.092Z,51.8
2017-08-21T09:49:16.162Z,51.6
2017-08-21T09:50:15.359Z,51.5
2017-08-21T09:53:13.712Z,50.7
2017-08-21T09:55:12.295Z,50.5
2017-08-21T09:56:11.369Z,50.2
2017-08-21T09:58:09.837Z,50.7
2017-08-21T10:00:08.437Z,50.3
2017-08-21T10:01:08.020Z,49.1
2017-08-21T10:02:06.866Z,50.3
2017-08-21T10:05:05.228Z,50.2
2017-08-21T10:06:04.181Z,50.1
2017-08-21T10:10:01.543Z,51.3
2017-08-21T10:10:32.057Z,51.3
2017-08-21T10:12:00.338Z,51.7
2017-08-21T10:12:59.537Z,51.7
2017-08-21T10:18:55.445Z,50.7
2017-08-21T10:19:55.138Z,50.6
2017-08-21T10:20:54.336Z,50.8
2017-08-21T10:23:52.305Z,50.1
2017-08-21T10:24:51.382Z,50.1
2017-08-21T10:25:50.832Z,49.9
2017-08-21T10:26:50.027Z,49.2
2017-08-21T10:27:48.990Z,49.4
2017-08-21T10:29:47.846Z,49.9
2017-08-21T10:30:47.538Z,49.9
2017-08-21T10:31:46.755Z,49.2
2017-08-21T10:32:45.829Z,49.1
2017-08-21T10:34:44.806Z,49.9
2017-08-21T10:35:43.892Z,49.5
2017-08-21T10:36:42.970Z,49.2
2017-08-21T10:37:42.566Z,50.6
2017-08-21T10:38:41.629Z,50.2
2017-08-21T10:39:41.329Z,50.3
2017-08-21T10:41:39.554Z,50.2
2017-08-21T10:42:39.129Z,49.5
2017-08-21T10:45:36.980Z,49
2017-08-21T10:48:35.213Z,50.2
2017-08-21T10:49:34.172Z,49.5
2017-08-21T10:50:33.865Z,50.1
2017-08-21T10:51:32.954Z,50.1
2017-08-21T10:53:31.821Z,48.6
2017-08-21T10:54:31.023Z,48.6
2017-08-21T10:55:30.216Z,49.2
2017-08-21T10:56:29.925Z,48.9
2017-08-21T10:58:28.400Z,48.8
2017-08-21T10:59:27.472Z,48.7
2017-08-21T11:00:26.934Z,48.6
2017-08-21T11:01:26.126Z,49
2017-08-21T11:02:25.704Z,49.3
2017-08-21T11:03:24.782Z,49.6
2017-08-21T11:04:24.248Z,49
2017-08-21T11:05:23.711Z,48.8
2017-08-21T11:05:54.099Z,48.8
2017-08-21T11:06:24.613Z,49
2017-08-21T11:06:54.985Z,49
2017-08-21T11:07:25.386Z,48.7
2017-08-21T11:08:21.438Z,48.7
2017-08-21T11:10:20.279Z,47.7
2017-08-21T11:11:19.860Z,47.6
2017-08-21T11:12:19.061Z,47.9
2017-08-21T11:13:18.143Z,47.5
2017-08-21T11:14:17.723Z,47.7
2017-08-21T11:15:16.790Z,47.1
2017-08-21T11:17:15.372Z,48
2017-08-21T11:18:15.074Z,47.7
2017-08-21T11:19:14.040Z,47.8
2017-08-21T11:20:13.637Z,47.9
2017-08-21T11:21:12.727Z,48.9
2017-08-21T11:22:12.318Z,48.6
2017-08-21T11:23:11.388Z,48.7
2017-08-21T11:27:08.743Z,48.5
2017-08-21T11:29:07.700Z,48.8
2017-08-21T11:31:06.291Z,49.5
2017-08-21T11:32:05.479Z,49.5
2017-08-21T11:33:05.162Z,49.3
2017-08-21T11:34:04.351Z,49.1
2017-08-21T11:35:03.438Z,49
2017-08-21T11:37:02.411Z,49.1
2017-08-21T11:38:01.499Z,48.4
2017-08-21T11:38:32.012Z,48.4
2017-08-21T11:39:02.404Z,48.2
2017-08-21T11:40:00.378Z,47.8
2017-08-21T11:40:59.460Z,47.4
2017-08-21T11:41:59.041Z,47.2
2017-08-21T11:42:58.249Z,46.9
2017-08-21T11:43:57.324Z,46.9
2017-08-21T11:44:57.022Z,46.9
2017-08-21T11:45:56.222Z,46.4
2017-08-21T11:46:55.799Z,45.7
2017-08-21T11:47:54.906Z,45.8
2017-08-21T11:48:54.606Z,45.1
2017-08-21T11:49:53.804Z,46.2
2017-08-21T11:51:52.278Z,46.9
2017-08-21T11:52:51.978Z,46.3
2017-08-21T11:53:51.055Z,46.4
2017-08-21T11:54:50.248Z,46.7
2017-08-21T11:55:49.836Z,46.5
2017-08-21T11:56:48.901Z,45.8
2017-08-21T11:58:47.626Z,46
2017-08-21T12:00:46.480Z,46.2
2017-08-21T12:01:45.819Z,46.2
2017-08-21T12:02:45.280Z,46.2
2017-08-21T12:03:44.474Z,47.3
2017-08-21T12:04:43.679Z,47.2
2017-08-21T12:05:43.134Z,46.9
2017-08-21T12:06:42.585Z,46.9
2017-08-21T12:08:41.173Z,46.2
2017-08-21T12:09:40.365Z,47.2
2017-08-21T12:10:39.947Z,47.7
2017-08-21T12:11:39.135Z,47.7
2017-08-21T12:12:38.703Z,47.8
2017-08-21T12:13:37.774Z,47.8
2017-08-21T12:16:36.015Z,47.6
2017-08-21T12:17:35.229Z,47.4
2017-08-21T12:18:34.931Z,47.5
2017-08-21T12:19:34.121Z,47.5
2017-08-21T12:20:33.076Z,47.8
2017-08-21T12:24:30.707Z,47.6
2017-08-21T12:25:29.774Z,47.1
2017-08-21T12:26:29.359Z,47.4
2017-08-21T12:27:28.951Z,47.9
2017-08-21T12:28:28.163Z,48.1
2017-08-21T12:29:27.359Z,47.7
2017-08-21T12:31:26.332Z,47.7
2017-08-21T12:32:25.429Z,48.6
2017-08-21T12:33:25.009Z,48.8
2017-08-21T12:34:23.977Z,48.9
2017-08-21T12:35:23.676Z,49.1
2017-08-21T12:36:22.646Z,48.6
2017-08-21T12:37:22.344Z,48.6
2017-08-21T12:38:21.548Z,48.5
2017-08-21T12:39:20.625Z,48.2
2017-08-21T12:40:20.315Z,48.4
2017-08-21T12:41:19.387Z,48
2017-08-21T12:42:18.962Z,47.5
2017-08-21T12:43:18.025Z,47.7
2017-08-21T12:44:17.479Z,47.3
2017-08-21T12:45:16.540Z,47.6
2017-08-21T12:46:16.125Z,47.9
2017-08-21T12:47:15.348Z,47.2
2017-08-21T12:47:45.736Z,47.2
2017-08-21T12:49:14.388Z,47.4
2017-08-21T12:50:13.224Z,47.6
2017-08-21T12:51:12.918Z,48
2017-08-21T12:52:12.374Z,47.9
2017-08-21T12:53:11.601Z,48.6
2017-08-21T12:54:10.673Z,48.6
2017-08-21T12:55:10.010Z,48.6
2017-08-21T12:56:09.590Z,48.5
2017-08-21T12:57:08.785Z,48.6
2017-08-21T12:58:08.483Z,49
2017-08-21T12:59:07.672Z,49.8
2017-08-21T13:00:06.877Z,49.7
2017-08-21T13:01:06.571Z,49.9
2017-08-21T13:02:05.781Z,49.4
2017-08-21T13:03:04.978Z,49.3
2017-08-21T13:04:04.179Z,50.2
2017-08-21T13:05:03.649Z,49.7
2017-08-21T13:06:02.725Z,50
2017-08-21T13:07:02.185Z,50
2017-08-21T13:08:01.653Z,49.8
2017-08-21T13:09:00.845Z,49.5
2017-08-21T13:10:00.537Z,49.7
2017-08-21T13:10:59.608Z,49.1
2017-08-21T13:12:58.565Z,49.1
2017-08-21T13:13:57.638Z,49.2
2017-08-21T13:14:57.216Z,48.8
2017-08-21T13:15:56.057Z,49.3
2017-08-21T13:16:55.524Z,49.1
2017-08-21T13:17:55.220Z,49.5
2017-08-21T13:18:54.166Z,50.2
2017-08-21T13:19:53.743Z,50.3
2017-08-21T13:20:53.437Z,49.2
2017-08-21T13:21:52.498Z,49
2017-08-21T13:22:51.565Z,49.3
2017-08-21T13:23:51.141Z,49.3
2017-08-21T13:25:49.616Z,49
2017-08-21T13:26:49.204Z,48.9
2017-08-21T13:27:48.660Z,48.4
2017-08-21T13:28:47.862Z,48.9
2017-08-21T13:30:46.725Z,49
2017-08-21T13:31:45.806Z,49
2017-08-21T13:32:45.269Z,48.7
2017-08-21T13:33:44.740Z,49.1
2017-08-21T13:34:43.822Z,49
2017-08-21T13:35:43.509Z,49.1
2017-08-21T13:36:42.581Z,49.1
2017-08-21T13:37:42.054Z,47.7
2017-08-21T13:38:41.253Z,48.7
2017-08-21T13:40:40.341Z,48.3
2017-08-21T13:41:39.414Z,48.2
2017-08-21T13:42:39.005Z,48.7
2017-08-21T13:43:38.195Z,48.7
2017-08-21T13:44:37.687Z,48.8
2017-08-21T13:45:37.155Z,48.7
2017-08-21T13:46:36.541Z,48.7
2017-08-21T13:48:34.997Z,48.6
2017-08-21T13:49:34.483Z,48.3
2017-08-21T13:50:33.564Z,48.8
2017-08-21T13:51:32.913Z,48.8
2017-08-21T13:52:32.497Z,47.9
2017-08-21T13:53:31.451Z,48.2
2017-08-21T13:54:30.925Z,48.5
2017-08-21T13:55:30.619Z,48.2
2017-08-21T13:56:29.704Z,47.9
2017-08-21T13:57:29.416Z,47.9
2017-08-21T13:58:28.496Z,48.6
2017-08-21T13:59:27.840Z,48.9
2017-08-21T14:00:26.924Z,48.9
2017-08-21T14:01:26.636Z,48.3
2017-08-21T14:02:25.829Z,48.6
2017-08-21T14:03:25.404Z,48.3
2017-08-21T14:04:24.482Z,48.3
2017-08-21T14:05:23.937Z,48.3
2017-08-21T14:06:23.277Z,48.3
2017-08-21T14:07:22.865Z,48.7
2017-08-21T14:08:22.329Z,48.9
2017-08-21T14:09:21.392Z,48.4
2017-08-21T14:10:20.586Z,48.1
2017-08-21T14:11:20.272Z,48.3
2017-08-21T14:12:19.345Z,48.2
2017-08-21T14:14:18.438Z,48
2017-08-21T14:15:17.280Z,47.6
2017-08-21T14:16:16.858Z,47.6
2017-08-21T14:17:16.448Z,47.7
2017-08-21T14:19:14.914Z,48.7
2017-08-21T14:20:14.379Z,48.8
2017-08-21T14:21:13.960Z,48.6
2017-08-21T14:23:12.419Z,48.5
2017-08-21T14:24:12.120Z,48.5
2017-08-21T14:25:11.209Z,48
2017-08-21T14:26:10.905Z,48.2
2017-08-21T14:27:10.100Z,48.2
2017-08-21T14:28:09.289Z,48.7
2017-08-21T14:29:08.985Z,48.1
2017-08-21T14:30:08.071Z,48.5
2017-08-21T14:31:07.654Z,48.9
2017-08-21T14:32:06.727Z,48.2
2017-08-21T14:33:06.421Z,47.4
2017-08-21T14:34:05.382Z,46.3
2017-08-21T14:35:04.734Z,46.5
2017-08-21T14:36:04.328Z,46.3
2017-08-21T14:37:03.802Z,46.6
2017-08-21T14:38:03.046Z,45.5
2017-08-21T14:39:02.635Z,46
2017-08-21T14:40:01.596Z,46.7
2017-08-21T14:41:01.056Z,46.7
2017-08-21T14:42:00.676Z,46.7
2017-08-21T14:43:00.253Z,46.8
2017-08-21T14:43:59.465Z,47.1
2017-08-21T14:44:58.424Z,47.3
2017-08-21T14:45:58.140Z,47.6
2017-08-21T14:46:57.619Z,46.5
2017-08-21T14:47:56.877Z,46.7
2017-08-21T14:48:56.461Z,46.2
2017-08-21T14:49:55.536Z,46.3
2017-08-21T14:50:55.230Z,46.3
2017-08-21T14:51:54.302Z,46.1
2017-08-21T14:52:53.521Z,46.8
2017-08-21T14:53:52.975Z,46.5
2017-08-21T14:54:52.802Z,45.8
2017-08-21T14:55:52.270Z,46.3
2017-08-21T14:56:51.344Z,46.2
2017-08-21T14:57:50.929Z,47.1
2017-08-21T14:58:50.004Z,47.1
2017-08-21T14:59:49.579Z,47.1
2017-08-21T15:00:48.640Z,47.9
2017-08-21T15:01:47.997Z,48.1
2017-08-21T15:02:47.472Z,48.1
2017-08-21T15:03:47.045Z,48.2
2017-08-21T15:04:46.751Z,48.1
2017-08-21T15:05:45.838Z,47.1
2017-08-21T15:06:45.408Z,46.4
2017-08-21T15:07:44.486Z,46.5
2017-08-21T15:08:14.638Z,46.5
2017-08-21T15:08:45.417Z,46.5
2017-08-21T15:09:15.787Z,46.5
2017-08-21T15:10:42.545Z,45.5
2017-08-21T15:11:42.118Z,45.3
2017-08-21T15:12:41.711Z,45
2017-08-21T15:13:40.928Z,44.8
2017-08-21T15:14:40.513Z,45.5
2017-08-21T15:15:39.615Z,45.5
2017-08-21T15:16:39.200Z,44.8
2017-08-21T15:18:37.798Z,45.2
2017-08-21T15:19:37.374Z,45.2
2017-08-21T15:20:36.965Z,44.3
2017-08-21T15:21:35.933Z,44.2
2017-08-21T15:24:34.410Z,45
2017-08-21T15:25:33.616Z,45.4
2017-08-21T15:26:33.202Z,45.7
2017-08-21T15:27:32.045Z,45.5
2017-08-21T15:28:31.627Z,45.1
2017-08-21T15:29:31.192Z,45.7
2017-08-21T15:30:30.376Z,55
2017-08-21T15:31:29.963Z,53
2017-08-21T15:32:29.034Z,51.6
2017-08-21T15:33:28.735Z,44.3
2017-08-21T15:34:28.083Z,45.1
2017-08-21T15:35:27.651Z,45.1
2017-08-21T15:36:26.729Z,44.7
2017-08-21T15:37:26.438Z,43.8
2017-08-21T15:38:25.515Z,44.1
2017-08-21T15:39:25.222Z,44
2017-08-21T15:40:24.301Z,44.2
2017-08-21T15:41:23.988Z,44.8
2017-08-21T15:42:23.188Z,44.7
2017-08-21T15:43:22.384Z,45.3
2017-08-21T15:44:22.085Z,47.3
2017-08-21T15:45:21.162Z,46
2017-08-21T15:46:20.744Z,45.2
2017-08-21T15:47:20.197Z,45.1
2017-08-21T15:48:19.780Z,45.1
2017-08-21T15:51:17.635Z,44.9
2017-08-21T15:52:17.212Z,43.9
2017-08-21T15:53:16.402Z,43.9
2017-08-21T15:54:15.488Z,45
2017-08-21T15:55:15.062Z,45.2
2017-08-21T15:56:14.778Z,45.5
2017-08-21T15:59:12.758Z,44.9
2017-08-21T16:00:12.530Z,45.3
2017-08-21T16:01:11.725Z,45.3